Time;durP1;ratioP1;P1;durP2;ratioP2;P2;SDS_P1;SDS_P2;PMS_P1;PMS_P2;Temp;Humidity;BMP_temperature;BMP_pressure;BME280_temperature;BME280_humidity;BME280_pressure;Samples;Min_cycle;Max_cycle;Signal;HPM_P1;HPM_P2
2022/04/15 00:01:06;;;;;;;28.27;11.87;;;5.70;96.60;;;;;;4274440;27;21127;-61
2022/04/15 00:03:08;;;;;;;25.90;13.17;;;5.70;96.60;;;;;;4271111;27;20274;-63
2022/04/15 00:07:29;;;;;;;28.20;13.30;;;5.70;96.90;;;;;;4272135;27;20266;-58
2022/04/15 00:09:30;;;;;;;28.67;13.17;;;5.70;97.10;;;;;;4275182;27;20295;-57
2022/04/15 00:11:32;;;;;;;25.03;12.70;;;5.60;97.20;;;;;;4265330;27;20271;-57
2022/04/15 00:13:35;;;;;;;28.53;14.80;;;5.60;97.50;;;;;;4238387;28;20324;-58
2022/04/15 00:15:38;;;;;;;27.43;13.40;;;5.60;97.70;;;;;;4256626;27;20255;-58
2022/04/15 00:17:40;;;;;;;27.90;14.10;;;5.60;97.80;;;;;;4257701;27;20270;-57
2022/04/15 00:19:41;;;;;;;33.73;15.20;;;5.60;97.70;;;;;;4256670;27;20631;-54
2022/04/15 00:21:43;;;;;;;28.37;13.60;;;5.50;97.90;;;;;;4258191;27;21077;-57
2022/04/15 00:23:44;;;;;;;28.67;15.17;;;5.50;98.10;;;;;;4256249;27;20263;-56
2022/04/15 00:25:46;;;;;;;30.23;14.03;;;5.50;98.20;;;;;;4260066;27;20311;-56
2022/04/15 00:27:47;;;;;;;31.40;14.10;;;5.40;98.60;;;;;;4258660;27;20258;-63
2022/04/15 00:29:50;;;;;;;25.37;12.17;;;5.40;98.60;;;;;;4259836;27;20266;-68
2022/04/15 00:31:51;;;;;;;30.50;13.83;;;5.40;98.60;;;;;;4275352;27;20319;-57
2022/04/15 00:33:52;;;;;;;27.00;13.63;;;5.30;98.80;;;;;;4276717;27;20670;-58
2022/04/15 00:35:53;;;;;;;28.30;14.03;;;5.30;99.20;;;;;;4277593;27;20616;-62
2022/04/15 00:37:54;;;;;;;26.23;13.63;;;5.30;99.40;;;;;;4276412;27;20655;-59
2022/04/15 00:39:56;;;;;;;24.10;13.10;;;5.30;99.20;;;;;;4276568;27;20298;-58
2022/04/15 00:41:58;;;;;;;27.13;13.93;;;5.30;99.40;;;;;;4273830;27;20286;-57
2022/04/15 00:43:59;;;;;;;23.73;12.63;;;5.30;99.60;;;;;;4241639;27;20324;-58
2022/04/15 00:46:10;;;;;;;30.87;13.37;;;5.30;99.70;;;;;;4258949;27;20274;-59
2022/04/15 00:48:11;;;;;;;30.02;14.55;;;5.30;99.90;;;;;;4267467;27;20342;-61
2022/04/15 00:50:13;;;;;;;21.87;11.87;;;5.20;99.90;;;;;;4275790;27;20497;-57
2022/04/15 00:52:16;;;;;;;27.03;12.80;;;5.10;99.90;;;;;;4262471;27;20327;-61
2022/04/15 00:54:20;;;;;;;22.13;11.53;;;5.00;99.90;;;;;;4260120;27;20266;-60
2022/04/15 00:56:22;;;;;;;21.87;11.10;;;4.90;99.90;;;;;;4260777;27;20331;-60
2022/04/15 00:58:25;;;;;;;21.93;12.03;;;4.90;99.90;;;;;;4259962;27;20262;-61
2022/04/15 01:00:33;;;;;;;30.50;11.90;;;4.90;99.90;;;;;;4261491;27;20286;-60
2022/04/15 01:02:34;;;;;;;18.53;9.77;;;4.90;99.90;;;;;;4258685;27;20339;-59
2022/04/15 01:04:39;;;;;;;20.67;10.10;;;4.80;99.90;;;;;;4260498;27;20989;-58
2022/04/15 01:06:40;;;;;;;22.17;10.83;;;4.70;99.90;;;;;;4259367;27;20262;-55
2022/04/15 01:08:43;;;;;;;21.47;9.40;;;4.60;99.90;;;;;;4260211;27;20278;-59
2022/04/15 01:10:46;;;;;;;21.27;10.77;;;4.60;99.90;;;;;;4259645;27;20842;-58
2022/04/15 01:12:54;;;;;;;22.43;10.90;;;4.60;99.90;;;;;;4259735;27;20312;-60
2022/04/15 01:15:02;;;;;;;23.70;10.00;;;4.60;99.90;;;;;;4268707;27;20675;-56
2022/04/15 01:17:05;;;;;;;15.23;8.27;;;4.60;99.90;;;;;;4276707;27;20318;-57
2022/04/15 01:19:07;;;;;;;15.63;7.30;;;4.50;99.90;;;;;;4274429;27;20306;-60
2022/04/15 01:21:09;;;;;;;16.93;7.57;;;4.30;99.90;;;;;;4275732;27;20350;-60
2022/04/15 01:23:11;;;;;;;18.07;8.07;;;4.20;99.90;;;;;;4275058;27;20274;-58
2022/04/15 01:25:15;;;;;;;14.97;7.63;;;4.10;99.90;;;;;;4276021;27;20296;-53
2022/04/15 01:27:33;;;;;;;16.73;7.53;;;4.00;99.90;;;;;;4276317;27;20254;-57
2022/04/15 01:29:38;;;;;;;15.87;7.90;;;3.90;99.90;;;;;;4274875;27;20667;-61
2022/04/15 01:31:39;;;;;;;19.20;8.47;;;3.70;99.90;;;;;;4276556;27;20261;-56
2022/04/15 01:33:40;;;;;;;17.77;9.27;;;3.60;99.90;;;;;;4275120;27;20333;-57
2022/04/15 01:35:42;;;;;;;21.40;8.83;;;3.50;99.90;;;;;;4274487;27;20262;-58
2022/04/15 01:37:44;;;;;;;28.00;10.27;;;3.50;99.90;;;;;;4275495;27;20321;-61
2022/04/15 01:39:47;;;;;;;26.57;11.53;;;3.50;99.90;;;;;;4274256;27;20947;-55
2022/04/15 01:41:48;;;;;;;25.07;10.63;;;3.30;99.90;;;;;;4273952;27;20274;-56
2022/04/15 01:43:49;;;;;;;20.00;10.50;;;3.20;99.90;;;;;;4276094;27;20262;-58
2022/04/15 01:45:50;;;;;;;23.47;11.33;;;3.10;99.90;;;;;;4275603;27;20325;-58
2022/04/15 01:47:52;;;;;;;26.83;11.07;;;3.00;99.90;;;;;;4275938;27;20274;-58
2022/04/15 01:49:53;;;;;;;26.83;11.73;;;3.00;99.90;;;;;;4276072;27;20343;-55
2022/04/15 01:51:54;;;;;;;30.23;12.60;;;2.90;99.90;;;;;;4276832;27;20647;-60
2022/04/15 01:53:55;;;;;;;27.97;11.67;;;2.80;99.90;;;;;;4273130;27;20330;-57
2022/04/15 01:55:56;;;;;;;33.10;12.10;;;2.80;99.90;;;;;;4275994;27;20316;-56
2022/04/15 01:57:58;;;;;;;30.33;12.87;;;2.70;99.90;;;;;;4275623;27;20826;-58
2022/04/15 01:59:59;;;;;;;30.63;12.10;;;2.60;99.90;;;;;;4274956;27;20377;-56
2022/04/15 02:02:00;;;;;;;28.60;13.00;;;2.60;99.90;;;;;;4276635;27;20262;-56
2022/04/15 02:04:01;;;;;;;37.83;14.23;;;2.60;99.90;;;;;;4273032;27;20804;-59
2022/04/15 02:06:03;;;;;;;38.20;15.93;;;2.60;99.90;;;;;;4259396;27;20262;-58
2022/04/15 02:08:04;;;;;;;35.07;14.97;;;2.60;99.90;;;;;;4257037;27;20271;-58
2022/04/15 02:10:06;;;;;;;41.23;16.80;;;2.60;99.90;;;;;;4238936;27;20333;-56
2022/04/15 02:12:08;;;;;;;41.10;16.00;;;2.60;99.90;;;;;;4264771;27;20619;-58
2022/04/15 02:14:09;;;;;;;32.07;15.53;;;2.70;99.90;;;;;;4275826;27;20369;-57
2022/04/15 02:16:10;;;;;;;30.73;14.17;;;2.80;99.90;;;;;;4275228;27;20722;-53
2022/04/15 02:18:13;;;;;;;28.33;12.97;;;2.90;99.90;;;;;;4275195;27;20262;-59
2022/04/15 02:20:14;;;;;;;38.17;14.50;;;2.90;99.90;;;;;;4257088;27;21140;-57
2022/04/15 02:22:15;;;;;;;31.50;12.80;;;3.00;99.90;;;;;;4275896;27;20261;-65
2022/04/15 02:24:16;;;;;;;51.07;13.90;;;3.00;99.90;;;;;;4275783;27;20298;-55
2022/04/15 02:26:17;;;;;;;33.63;13.43;;;3.00;99.90;;;;;;4264351;27;20266;-60
2022/04/15 02:28:19;;;;;;;28.37;12.40;;;3.10;99.90;;;;;;4257898;27;20315;-57
2022/04/15 02:30:20;;;;;;;29.37;12.90;;;3.00;99.90;;;;;;4257448;27;20331;-54
2022/04/15 02:32:22;;;;;;;27.40;12.53;;;3.00;99.90;;;;;;4267389;27;20329;-58
2022/04/15 02:34:23;;;;;;;27.67;11.80;;;3.00;99.90;;;;;;4274695;27;20262;-58
2022/04/15 02:36:25;;;;;;;31.30;11.63;;;3.00;99.90;;;;;;4275783;27;20920;-60
2022/04/15 02:38:26;;;;;;;36.37;13.83;;;3.10;99.90;;;;;;4273749;27;20250;-57
2022/04/15 02:40:28;;;;;;;26.53;12.33;;;3.10;99.90;;;;;;4275982;27;20686;-58
2022/04/15 02:42:29;;;;;;;24.40;10.97;;;3.20;99.90;;;;;;4274979;27;20249;-57
2022/04/15 02:44:31;;;;;;;22.57;11.37;;;3.20;99.90;;;;;;4276025;27;20270;-58
2022/04/15 02:46:32;;;;;;;25.67;11.87;;;3.20;99.90;;;;;;4273475;27;20330;-60
2022/04/15 02:48:34;;;;;;;23.10;12.03;;;3.20;99.90;;;;;;4275496;27;20956;-57
2022/04/15 02:50:35;;;;;;;26.87;11.20;;;3.30;99.90;;;;;;4273126;27;20281;-67
2022/04/15 02:52:36;;;;;;;36.00;11.60;;;3.30;99.90;;;;;;4274757;27;20274;-60
2022/04/15 02:54:37;;;;;;;21.87;10.77;;;3.30;99.90;;;;;;4274666;27;20671;-55
2022/04/15 02:56:38;;;;;;;39.20;13.90;;;3.20;99.90;;;;;;4256337;27;20488;-62
2022/04/15 02:58:40;;;;;;;31.53;13.30;;;3.20;99.90;;;;;;4258161;27;20267;-56
2022/04/15 03:00:41;;;;;;;37.40;13.03;;;3.10;99.90;;;;;;4238626;27;20736;-66
2022/04/15 03:02:42;;;;;;;34.67;11.93;;;3.10;99.90;;;;;;4257964;27;20307;-56
2022/04/15 03:04:43;;;;;;;30.07;13.10;;;3.00;99.90;;;;;;4256729;27;20259;-57
2022/04/15 03:06:45;;;;;;;30.63;12.77;;;2.90;99.90;;;;;;4257325;27;20335;-57
2022/04/15 03:08:46;;;;;;;30.97;12.50;;;2.80;99.90;;;;;;4257212;27;20291;-63
2022/04/15 03:10:47;;;;;;;32.77;13.87;;;2.80;99.90;;;;;;4261956;27;20282;-59
2022/04/15 03:12:48;;;;;;;28.67;12.90;;;2.80;99.90;;;;;;4257204;27;20286;-57
2022/04/15 03:14:51;;;;;;;33.90;12.27;;;2.70;99.90;;;;;;4258023;27;20274;-58
2022/04/15 03:16:52;;;;;;;44.10;13.57;;;2.80;99.90;;;;;;4271999;27;20319;-62
2022/04/15 03:18:53;;;;;;;25.63;12.23;;;2.80;99.90;;;;;;4256007;27;20814;-60
2022/04/15 03:20:54;;;;;;;28.43;12.60;;;2.80;99.90;;;;;;4273756;27;20350;-56
2022/04/15 03:22:55;;;;;;;29.03;13.57;;;2.90;99.90;;;;;;4274794;27;20269;-60
2022/04/15 03:24:56;;;;;;;29.97;12.97;;;2.90;99.90;;;;;;4274464;27;21267;-58
2022/04/15 03:26:57;;;;;;;37.30;12.60;;;2.90;99.90;;;;;;4274217;27;20262;-57
2022/04/15 03:28:58;;;;;;;32.43;12.20;;;2.90;99.90;;;;;;4274642;27;20302;-57
2022/04/15 03:30:59;;;;;;;31.97;13.23;;;2.90;99.90;;;;;;4272096;27;20281;-54
2022/04/15 03:33:01;;;;;;;30.17;12.17;;;2.90;99.90;;;;;;4275106;27;20314;-56
2022/04/15 03:35:02;;;;;;;30.33;11.03;;;2.90;99.90;;;;;;4274217;27;20282;-58
2022/04/15 03:37:04;;;;;;;26.73;11.60;;;2.90;99.90;;;;;;4275452;27;20270;-58
2022/04/15 03:39:05;;;;;;;36.27;13.63;;;2.80;99.90;;;;;;4258869;27;20559;-54
2022/04/15 03:41:07;;;;;;;28.80;11.67;;;2.80;99.90;;;;;;4266815;27;20861;-57
2022/04/15 03:43:09;;;;;;;24.07;10.97;;;2.80;99.90;;;;;;4270023;27;20323;-61
2022/04/15 03:45:14;;;;;;;21.27;10.60;;;2.70;99.90;;;;;;4273329;27;20266;-67
2022/04/15 03:47:16;;;;;;;23.00;10.20;;;2.70;99.90;;;;;;4257434;27;21157;-58
2022/04/15 03:49:17;;;;;;;23.43;10.17;;;2.60;99.90;;;;;;4257971;27;20267;-62
2022/04/15 03:51:18;;;;;;;21.83;11.30;;;2.60;99.90;;;;;;4256685;27;20320;-66
2022/04/15 03:53:20;;;;;;;25.73;9.17;;;2.70;99.90;;;;;;4256626;27;20274;-57
2022/04/15 03:55:24;;;;;;;24.10;10.80;;;2.70;99.90;;;;;;4257476;27;20314;-54
2022/04/15 03:57:27;;;;;;;25.50;10.90;;;2.70;99.90;;;;;;4260051;27;20271;-60
2022/04/15 03:59:28;;;;;;;27.60;10.83;;;2.90;99.90;;;;;;4257402;27;20329;-65
2022/04/15 04:01:30;;;;;;;37.10;12.20;;;3.10;99.90;;;;;;4268565;27;20660;-64
2022/04/15 04:03:31;;;;;;;26.20;11.37;;;3.30;99.90;;;;;;4260408;27;20724;-59
2022/04/15 04:05:32;;;;;;;28.00;11.77;;;3.60;99.90;;;;;;4259101;27;20290;-61
2022/04/15 04:07:33;;;;;;;26.17;11.70;;;3.90;99.90;;;;;;4260865;27;20259;-64
2022/04/15 04:09:34;;;;;;;29.43;11.77;;;4.10;99.90;;;;;;4275763;27;20270;-61
2022/04/15 04:11:35;;;;;;;27.87;11.73;;;4.40;99.90;;;;;;4278210;27;20326;-53
2022/04/15 04:13:36;;;;;;;27.30;12.93;;;4.80;99.90;;;;;;4274836;27;20274;-53
2022/04/15 04:15:38;;;;;;;26.97;13.23;;;5.10;99.90;;;;;;4276754;27;20322;-58
2022/04/15 04:17:39;;;;;;;27.90;12.50;;;5.50;99.90;;;;;;4258168;27;20266;-57
2022/04/15 04:19:41;;;;;;;22.70;12.03;;;5.80;99.90;;;;;;4259685;27;20274;-60
2022/04/15 04:21:42;;;;;;;28.53;11.63;;;6.10;99.90;;;;;;4258735;27;20296;-56
2022/04/15 04:23:43;;;;;;;32.57;11.67;;;6.40;99.90;;;;;;4260454;27;20315;-49
2022/04/15 04:25:44;;;;;;;30.30;9.63;;;6.70;99.90;;;;;;4260331;27;20319;-58
2022/04/15 04:27:45;;;;;;;38.07;12.57;;;6.90;99.90;;;;;;4275502;27;20630;-55
2022/04/15 04:29:47;;;;;;;29.40;11.40;;;7.10;99.90;;;;;;4259035;27;20263;-63
2022/04/15 04:31:48;;;;;;;47.63;12.63;;;7.30;99.90;;;;;;4258989;27;20263;-56
2022/04/15 04:33:50;;;;;;;27.80;11.93;;;7.40;99.90;;;;;;4244388;27;20974;-60
2022/04/15 04:35:51;;;;;;;39.20;13.60;;;7.70;99.90;;;;;;4259565;27;20270;-56
2022/04/15 04:37:53;;;;;;;27.13;11.40;;;8.00;99.90;;;;;;4263346;27;21151;-66
2022/04/15 04:39:54;;;;;;;39.13;12.80;;;8.30;99.90;;;;;;4251454;27;20119;-56
2022/04/15 04:41:57;;;;;;;27.53;11.37;;;8.40;99.90;;;;;;4270474;27;20109;-58
2022/04/15 04:43:59;;;;;;;36.40;12.90;;;8.50;99.90;;;;;;4256115;27;20034;-57
2022/04/15 04:46:00;;;;;;;29.87;12.77;;;8.60;99.90;;;;;;4267046;27;20035;-58
2022/04/15 04:48:02;;;;;;;31.97;12.17;;;8.90;99.90;;;;;;4263617;27;20042;-57
2022/04/15 04:50:04;;;;;;;27.87;12.30;;;9.20;99.40;;;;;;4262481;27;20130;-60
2022/04/15 04:52:06;;;;;;;28.50;13.03;;;9.50;98.80;;;;;;4257765;27;20432;-59
2022/04/15 04:54:07;;;;;;;29.00;12.97;;;9.80;98.10;;;;;;4260308;27;20454;-60
2022/04/15 04:56:09;;;;;;;33.07;14.03;;;10.10;97.50;;;;;;4269706;27;20075;-55
2022/04/15 04:58:10;;;;;;;27.67;13.13;;;10.30;96.80;;;;;;4275050;27;20094;-66
2022/04/15 05:00:13;;;;;;;32.60;13.27;;;10.70;96.00;;;;;;4264516;27;20050;-57
2022/04/15 05:02:14;;;;;;;28.80;12.90;;;10.90;95.20;;;;;;4258285;27;20035;-58
2022/04/15 05:04:15;;;;;;;24.67;12.80;;;11.10;94.80;;;;;;4259443;27;20026;-57
2022/04/15 05:06:16;;;;;;;36.70;12.73;;;11.50;94.30;;;;;;4258297;27;20074;-57
2022/04/15 05:08:19;;;;;;;32.53;12.67;;;12.00;93.40;;;;;;4259665;27;20462;-58
2022/04/15 05:10:22;;;;;;;34.57;13.37;;;12.40;92.00;;;;;;4258584;27;20095;-58
2022/04/15 05:12:23;;;;;;;28.00;13.90;;;12.70;91.40;;;;;;4259778;27;20018;-64
2022/04/15 05:14:24;;;;;;;41.37;13.57;;;12.70;90.90;;;;;;4258231;27;20772;-57
2022/04/15 05:16:26;;;;;;;29.87;13.20;;;12.80;90.20;;;;;;4260106;27;20034;-58
2022/04/15 05:18:27;;;;;;;36.83;13.80;;;12.80;89.70;;;;;;4257142;27;20042;-57
2022/04/15 05:20:29;;;;;;;39.50;14.03;;;12.60;89.00;;;;;;4258777;27;20557;-61
2022/04/15 05:22:30;;;;;;;37.00;14.33;;;12.90;88.30;;;;;;4257862;27;20027;-63
2022/04/15 05:24:31;;;;;;;37.80;13.90;;;13.20;87.30;;;;;;4258543;27;20087;-56
2022/04/15 05:26:33;;;;;;;43.27;14.17;;;13.10;85.90;;;;;;4257935;27;20042;-55
2022/04/15 05:28:36;;;;;;;40.73;13.77;;;12.90;85.20;;;;;;4239997;27;20444;-61
2022/04/15 05:30:37;;;;;;;44.63;15.60;;;12.90;85.00;;;;;;4258069;27;20026;-57
2022/04/15 05:32:38;;;;;;;47.77;15.33;;;12.90;84.70;;;;;;4258925;27;20099;-62
2022/04/15 05:34:42;;;;;;;37.30;15.60;;;13.10;84.30;;;;;;4259067;27;20780;-59
2022/04/15 05:36:43;;;;;;;29.97;13.80;;;13.40;82.90;;;;;;4257554;27;20046;-57
2022/04/15 05:38:44;;;;;;;43.70;14.67;;;13.30;82.00;;;;;;4258631;27;20043;-59
2022/04/15 05:40:45;;;;;;;39.33;15.20;;;13.40;81.80;;;;;;4257363;27;20107;-56
2022/04/15 05:42:46;;;;;;;37.83;13.77;;;13.30;81.50;;;;;;4259318;27;20384;-60
2022/04/15 05:44:47;;;;;;;36.87;14.50;;;13.40;81.00;;;;;;4256733;27;20079;-63
2022/04/15 05:46:49;;;;;;;37.37;14.77;;;13.50;80.60;;;;;;4259365;27;20079;-59
2022/04/15 05:48:50;;;;;;;34.73;13.77;;;14.00;80.00;;;;;;4257718;27;20050;-61
2022/04/15 05:50:51;;;;;;;48.47;14.73;;;14.10;78.40;;;;;;4258324;27;20079;-58
2022/04/15 05:52:52;;;;;;;37.00;15.20;;;14.00;78.10;;;;;;4238432;27;20047;-56
2022/04/15 05:54:54;;;;;;;41.17;14.07;;;13.60;78.20;;;;;;4259625;27;20030;-57
2022/04/15 05:56:55;;;;;;;35.00;14.57;;;13.20;78.30;;;;;;4257536;27;20463;-64
2022/04/15 05:58:56;;;;;;;46.10;16.33;;;13.20;79.00;;;;;;4258198;27;20063;-60
2022/04/15 06:00:57;;;;;;;42.60;14.13;;;13.20;79.20;;;;;;4257801;27;20424;-56
2022/04/15 06:02:59;;;;;;;30.00;14.10;;;13.30;79.00;;;;;;4257503;27;20107;-56
2022/04/15 06:05:00;;;;;;;37.63;14.63;;;13.50;78.50;;;;;;4258156;27;20098;-60
2022/04/15 06:07:02;;;;;;;45.43;15.47;;;13.70;78.50;;;;;;4257941;27;20076;-58
2022/04/15 06:09:03;;;;;;;35.63;14.03;;;14.00;78.30;;;;;;4257262;27;20364;-59
2022/04/15 06:11:04;;;;;;;36.20;14.30;;;14.20;77.30;;;;;;4257261;27;20039;-58
2022/04/15 06:13:19;;;;;;;28.40;12.90;;;14.00;77.60;;;;;;4257849;27;20030;-69
2022/04/15 06:15:31;;;;;;;30.43;13.43;;;13.90;77.70;;;;;;4257623;27;20407;-58
2022/04/15 06:17:32;;;;;;;31.57;14.40;;;14.10;77.60;;;;;;4258136;27;20018;-57
2022/04/15 06:19:33;;;;;;;24.73;12.70;;;14.60;77.10;;;;;;4239135;27;20027;-54
2022/04/15 06:21:34;;;;;;;27.33;11.80;;;15.00;75.90;;;;;;4257959;27;20050;-58
2022/04/15 06:23:35;;;;;;;25.40;11.87;;;15.00;74.70;;;;;;4256259;27;20435;-58
2022/04/15 06:25:36;;;;;;;21.90;11.10;;;15.00;74.60;;;;;;4259356;27;20087;-57
2022/04/15 06:27:38;;;;;;;26.20;13.07;;;15.10;74.10;;;;;;4256935;27;20022;-60
2022/04/15 06:29:39;;;;;;;31.70;12.20;;;14.90;74.10;;;;;;4258600;27;20034;-60
2022/04/15 06:31:40;;;;;;;29.60;13.03;;;14.90;74.30;;;;;;4256596;27;20593;-58
2022/04/15 06:33:41;;;;;;;28.93;12.70;;;14.70;74.40;;;;;;4257928;27;20031;-69
2022/04/15 06:35:42;;;;;;;27.73;12.83;;;14.90;74.50;;;;;;4238117;27;20043;-60
2022/04/15 06:37:45;;;;;;;28.07;12.77;;;14.80;74.30;;;;;;4258274;27;20422;-59
2022/04/15 06:39:50;;;;;;;26.40;11.87;;;14.70;74.00;;;;;;4257325;27;20034;-58
2022/04/15 06:41:51;;;;;;;28.47;14.00;;;14.80;74.00;;;;;;4257597;27;20034;-62
2022/04/15 06:43:52;;;;;;;19.60;12.17;;;14.70;74.10;;;;;;4256981;27;20035;-60
2022/04/15 06:45:53;;;;;;;27.73;11.33;;;14.50;74.40;;;;;;4256101;27;20043;-57
2022/04/15 06:47:54;;;;;;;16.10;10.70;;;14.20;74.10;;;;;;4256956;27;20042;-58
2022/04/15 06:49:55;;;;;;;24.90;13.03;;;13.90;74.80;;;;;;4256809;27;20050;-56
2022/04/15 06:51:56;;;;;;;23.57;12.37;;;13.90;75.30;;;;;;4257973;27;20034;-56
2022/04/15 06:53:58;;;;;;;23.10;11.43;;;13.80;75.50;;;;;;4256102;27;20042;-63
2022/04/15 06:55:59;;;;;;;24.90;12.73;;;13.60;75.50;;;;;;4258019;27;20450;-58
2022/04/15 06:58:00;;;;;;;21.30;11.30;;;13.70;75.40;;;;;;4256473;27;20874;-59
2022/04/15 07:00:02;;;;;;;28.20;13.20;;;13.90;75.20;;;;;;4257518;27;20099;-57
2022/04/15 07:02:04;;;;;;;28.83;12.30;;;14.30;74.50;;;;;;4256572;27;20436;-64
2022/04/15 07:04:06;;;;;;;33.03;14.00;;;14.70;73.60;;;;;;4257735;27;20523;-57
2022/04/15 07:06:07;;;;;;;26.50;12.97;;;14.60;73.10;;;;;;4256891;27;20531;-58
2022/04/15 07:08:09;;;;;;;26.77;12.57;;;14.40;73.30;;;;;;4257603;27;20035;-55
2022/04/15 07:10:11;;;;;;;25.27;10.57;;;14.30;73.60;;;;;;4256669;27;20023;-57
2022/04/15 07:12:12;;;;;;;23.73;12.03;;;14.00;73.20;;;;;;4256295;27;20432;-55
2022/04/15 07:14:13;;;;;;;25.03;12.37;;;14.20;73.50;;;;;;4256951;27;20030;-60
2022/04/15 07:16:14;;;;;;;19.37;10.57;;;14.10;73.10;;;;;;4256747;27;20030;-59
2022/04/15 07:18:15;;;;;;;19.10;9.33;;;13.90;72.60;;;;;;4256930;27;20106;-58
2022/04/15 07:20:17;;;;;;;16.73;10.07;;;13.60;72.70;;;;;;4237748;27;20491;-55
2022/04/15 07:22:19;;;;;;;23.20;10.30;;;13.40;73.30;;;;;;4257832;27;20099;-62
2022/04/15 07:24:21;;;;;;;18.77;9.30;;;13.40;74.00;;;;;;4255699;27;20449;-61
2022/04/15 07:26:22;;;;;;;24.40;9.80;;;13.50;73.70;;;;;;4257417;27;20091;-57
2022/04/15 07:28:24;;;;;;;17.70;9.57;;;13.70;73.50;;;;;;4255768;27;20115;-56
2022/04/15 07:30:25;;;;;;;18.60;10.17;;;13.70;73.50;;;;;;4256800;27;20091;-61
2022/04/15 07:32:28;;;;;;;17.87;10.90;;;13.80;73.70;;;;;;4256470;27;20744;-59
2022/04/15 07:34:29;;;;;;;30.13;15.13;;;13.60;74.00;;;;;;4256983;27;20094;-57
2022/04/15 07:38:35;;;;;;;19.93;10.03;;;13.60;74.70;;;;;;4257389;27;20099;-55
2022/04/15 07:40:36;;;;;;;18.23;11.03;;;13.60;75.00;;;;;;4255584;27;20115;-59
2022/04/15 07:42:37;;;;;;;22.77;10.77;;;13.70;74.90;;;;;;4257053;27;20038;-57
2022/04/15 07:44:44;;;;;;;22.37;12.10;;;13.90;74.90;;;;;;4238397;28;20019;-62
2022/04/15 07:46:46;;;;;;;25.23;11.80;;;13.90;75.10;;;;;;4256442;27;20038;-56
2022/04/15 07:48:47;;;;;;;29.53;12.40;;;14.00;75.50;;;;;;4257046;27;20058;-60
2022/04/15 07:50:49;;;;;;;25.63;12.73;;;14.10;75.80;;;;;;4256700;27;20031;-55
2022/04/15 07:52:55;;;;;;;25.13;12.50;;;13.90;76.20;;;;;;4256822;27;20646;-58
2022/04/15 07:54:56;;;;;;;21.73;11.57;;;14.10;77.10;;;;;;4255731;27;20050;-59
2022/04/15 07:56:57;;;;;;;26.83;11.93;;;14.00;76.90;;;;;;4257393;27;20038;-56
2022/04/15 07:58:59;;;;;;;21.13;10.83;;;14.00;77.40;;;;;;4255197;27;20039;-59
2022/04/15 08:01:01;;;;;;;22.60;12.20;;;14.00;77.70;;;;;;4257707;27;20039;-59
2022/04/15 08:03:02;;;;;;;18.77;10.93;;;14.30;77.70;;;;;;4255645;27;20370;-57
2022/04/15 08:05:04;;;;;;;18.57;12.10;;;14.40;77.20;;;;;;4256685;27;20043;-61
2022/04/15 08:07:06;;;;;;;22.47;11.80;;;14.40;77.40;;;;;;4255699;27;20031;-55
2022/04/15 08:09:07;;;;;;;27.07;12.00;;;14.40;78.60;;;;;;4256959;27;20047;-58
2022/04/15 08:11:09;;;;;;;25.33;12.37;;;14.60;77.70;;;;;;4255847;27;20035;-57
2022/04/15 08:13:10;;;;;;;22.90;10.50;;;14.70;77.90;;;;;;4237264;27;20720;-59
2022/04/15 08:15:11;;;;;;;22.10;11.33;;;14.70;78.30;;;;;;4256484;27;20039;-54
2022/04/15 08:17:12;;;;;;;23.10;12.17;;;14.70;78.50;;;;;;4256243;27;20038;-58
2022/04/15 08:19:14;;;;;;;25.10;11.40;;;15.00;78.60;;;;;;4256467;27;20100;-52
2022/04/15 08:21:16;;;;;;;18.53;11.73;;;15.20;78.30;;;;;;4255255;27;20043;-64
2022/04/15 08:23:17;;;;;;;21.33;10.77;;;15.10;78.60;;;;;;4256888;27;20359;-60
2022/04/15 08:25:19;;;;;;;19.27;11.10;;;15.10;79.10;;;;;;4255488;27;20103;-57
2022/04/15 08:27:20;;;;;;;21.17;11.27;;;15.30;79.00;;;;;;4256842;27;20076;-61
2022/04/15 08:29:22;;;;;;;25.27;12.23;;;15.40;78.90;;;;;;4255290;27;20543;-62
2022/04/15 08:31:23;;;;;;;19.43;10.47;;;15.60;79.00;;;;;;4256631;27;20039;-57
2022/04/15 08:33:24;;;;;;;20.17;10.67;;;15.70;78.80;;;;;;4255435;27;20459;-64
2022/04/15 08:35:26;;;;;;;19.23;10.73;;;15.70;78.70;;;;;;4256015;27;20095;-60
2022/04/15 08:37:28;;;;;;;21.77;10.93;;;15.90;78.70;;;;;;4255180;27;20104;-57
2022/04/15 08:39:29;;;;;;;19.60;10.47;;;15.90;78.90;;;;;;4257255;27;20127;-59
2022/04/15 08:41:38;;;;;;;16.73;9.73;;;16.10;79.10;;;;;;4255160;27;20088;-56
2022/04/15 08:43:42;;;;;;;19.10;10.07;;;16.40;78.40;;;;;;4256177;27;20091;-58
2022/04/15 08:45:47;;;;;;;16.33;9.10;;;16.40;78.10;;;;;;4256527;27;20484;-55
2022/04/15 08:47:48;;;;;;;17.23;9.50;;;16.60;77.90;;;;;;4259803;27;20075;-58
2022/04/15 08:49:50;;;;;;;16.37;9.20;;;16.70;77.40;;;;;;4258252;27;20119;-60
2022/04/15 08:51:51;;;;;;;16.23;8.35;;;16.90;77.70;;;;;;4259320;27;20494;-58
2022/04/15 08:53:54;;;;;;;13.52;8.93;;;17.00;76.50;;;;;;4259672;27;20135;-61
2022/04/15 08:55:56;;;;;;;15.45;7.40;;;17.00;76.20;;;;;;4258726;27;20042;-57
2022/04/15 08:57:57;;;;;;;16.13;9.00;;;17.10;75.80;;;;;;4258760;27;20046;-55
2022/04/15 09:00:00;;;;;;;16.95;8.30;;;17.30;75.40;;;;;;4258641;27;20083;-62
2022/04/15 09:02:01;;;;;;;18.13;8.02;;;17.40;75.00;;;;;;4259428;27;20646;-55
2022/04/15 09:04:03;;;;;;;14.20;7.22;;;17.50;74.70;;;;;;4257862;27;20095;-56
2022/04/15 09:06:13;;;;;;;14.15;7.28;;;17.40;74.20;;;;;;4259651;27;20034;-53
2022/04/15 09:08:14;;;;;;;10.75;7.20;;;17.40;74.20;;;;;;4258433;27;20091;-60
2022/04/15 09:10:18;;;;;;;15.13;7.28;;;17.60;74.10;;;;;;4259336;27;20076;-62
2022/04/15 09:12:19;;;;;;;15.30;6.70;;;17.70;73.20;;;;;;4258108;27;20030;-54
2022/04/15 09:14:21;;;;;;;12.70;7.22;;;17.90;72.80;;;;;;4259854;27;20071;-67
2022/04/15 09:16:24;;;;;;;10.45;6.57;;;17.90;72.50;;;;;;4239030;27;20043;-57
2022/04/15 09:18:28;;;;;;;9.27;5.95;;;18.10;71.40;;;;;;4259128;27;20014;-61
2022/04/15 09:20:32;;;;;;;19.00;7.10;;;18.10;71.00;;;;;;4257665;27;20100;-56
2022/04/15 09:22:33;;;;;;;12.15;6.38;;;18.20;71.20;;;;;;4240791;27;20081;-57
2022/04/15 09:24:34;;;;;;;10.68;6.13;;;18.30;70.30;;;;;;4257726;27;20038;-62
2022/04/15 09:26:38;;;;;;;11.13;6.95;;;18.30;69.90;;;;;;4258135;27;20099;-60
2022/04/15 09:28:39;;;;;;;13.77;6.50;;;18.40;69.90;;;;;;4258728;27;20087;-58
2022/04/15 09:30:40;;;;;;;16.42;5.70;;;18.50;69.70;;;;;;4258040;27;20030;-59
2022/04/15 09:32:41;;;;;;;11.90;5.63;;;18.50;68.70;;;;;;4258198;27;20494;-56
2022/04/15 09:35:15;;;;;;;11.63;5.45;;;18.50;68.40;;;;;;4257569;27;20387;-62
2022/04/15 09:37:17;;;;;;;12.52;5.22;;;18.50;65.60;;;;;;4246394;27;20444;-61
2022/04/15 09:39:18;;;;;;;12.40;5.18;;;18.50;67.00;;;;;;4257273;27;20812;-60
2022/04/15 09:41:25;;;;;;;10.48;5.80;;;18.60;66.60;;;;;;4258965;27;20087;-59
2022/04/15 09:43:26;;;;;;;10.88;5.80;;;18.70;65.80;;;;;;4257621;27;20027;-55
2022/04/15 09:45:37;;;;;;;9.25;4.97;;;18.70;65.20;;;;;;4258358;27;20094;-62
2022/04/15 09:47:39;;;;;;;;;;;18.80;63.90;;;;;;4258232;27;20440;-58
2022/04/15 09:49:44;;;;;;;8.77;3.97;;;18.90;62.00;;;;;;4258268;27;20367;-60
2022/04/15 09:51:51;;;;;;;8.60;4.25;;;18.80;61.30;;;;;;4257946;27;20110;-63
2022/04/15 09:53:55;;;;;;;8.38;4.80;;;18.90;62.00;;;;;;4258701;27;20027;-62
2022/04/15 09:55:57;;;;;;;11.10;4.63;;;18.90;62.20;;;;;;4257682;27;20306;-60
2022/04/15 09:58:04;;;;;;;7.40;3.97;;;19.10;62.10;;;;;;4258570;27;20094;-60
2022/04/15 10:00:08;;;;;;;7.43;3.75;;;19.20;61.20;;;;;;4257102;27;20102;-66
2022/04/15 10:02:12;;;;;;;8.93;3.97;;;19.30;61.00;;;;;;4258536;27;20103;-58
2022/04/15 10:04:13;;;;;;;9.27;4.30;;;19.30;59.90;;;;;;4256968;27;20498;-59
2022/04/15 10:06:16;;;;;;;8.32;3.83;;;19.20;60.40;;;;;;4258674;27;20039;-66
2022/04/15 10:08:22;;;;;;;6.32;3.83;;;19.20;60.10;;;;;;4257136;27;20127;-57
2022/04/15 10:10:25;;;;;;;6.43;3.97;;;19.20;59.10;;;;;;4258296;27;21406;-57
2022/04/15 10:12:28;;;;;;;5.63;3.28;;;19.30;59.50;;;;;;4257351;27;20015;-57
2022/04/15 10:14:30;;;;;;;4.93;2.97;;;19.30;59.00;;;;;;4257899;27;20088;-58
2022/04/15 10:16:32;;;;;;;6.15;3.20;;;19.30;58.30;;;;;;4257111;27;20035;-57
2022/04/15 10:18:34;;;;;;;7.50;3.20;;;19.20;58.40;;;;;;4257886;27;20408;-55
2022/04/15 10:20:38;;;;;;;7.90;4.03;;;19.30;58.10;;;;;;4258099;27;20861;-64
2022/04/15 10:22:40;;;;;;;6.63;3.83;;;19.30;57.40;;;;;;4257646;27;20051;-54
2022/04/15 10:24:42;;;;;;;6.05;3.20;;;19.40;57.60;;;;;;4258384;27;20030;-55
2022/04/15 10:26:46;;;;;;;7.32;2.85;;;19.40;56.90;;;;;;4256835;27;20119;-57
2022/04/15 10:28:48;;;;;;;4.82;3.05;;;19.40;56.60;;;;;;4257769;27;20821;-58
2022/04/15 10:30:54;;;;;;;4.50;3.30;;;19.50;56.50;;;;;;4256224;27;20521;-57